sensor_id;sensor_type;location;lat;lon;timestamp;P1;durP1;ratioP1;P2;durP2;ratioP2
1390;SDS011;690;51.454;7.194;2022-12-29T00:00:17;1.80;;;1.20;;
1390;SDS011;690;51.454;7.194;2022-12-29T00:02:44;2.23;;;1.23;;
1390;SDS011;690;51.454;7.194;2022-12-29T00:05:12;3.33;;;0.80;;
1390;SDS011;690;51.454;7.194;2022-12-29T00:07:39;1.10;;;1.00;;
1390;SDS011;690;51.454;7.194;2022-12-29T00:10:07;0.97;;;0.87;;
1390;SDS011;690;51.454;7.194;2022-12-29T00:12:34;1.23;;;1.13;;
1390;SDS011;690;51.454;7.194;2022-12-29T00:15:18;2.40;;;1.23;;
1390;SDS011;690;51.454;7.194;2022-12-29T00:18:04;0.77;;;0.77;;
1390;SDS011;690;51.454;7.194;2022-12-29T00:20:34;1.47;;;0.90;;
1390;SDS011;690;51.454;7.194;2022-12-29T00:23:19;1.13;;;0.90;;
1390;SDS011;690;51.454;7.194;2022-12-29T00:26:05;1.57;;;0.97;;
1390;SDS011;690;51.454;7.194;2022-12-29T00:28:55;1.07;;;0.80;;
1390;SDS011;690;51.454;7.194;2022-12-29T00:31:39;0.80;;;0.80;;
1390;SDS011;690;51.454;7.194;2022-12-29T00:34:24;1.93;;;1.10;;
1390;SDS011;690;51.454;7.194;2022-12-29T00:37:09;0.93;;;0.90;;
1390;SDS011;690;51.454;7.194;2022-12-29T00:39:36;1.10;;;1.00;;
1390;SDS011;690;51.454;7.194;2022-12-29T00:42:35;1.53;;;0.90;;
1390;SDS011;690;51.454;7.194;2022-12-29T00:45:19;1.40;;;1.30;;
1390;SDS011;690;51.454;7.194;2022-12-29T00:47:46;1.80;;;1.00;;
1390;SDS011;690;51.454;7.194;2022-12-29T00:50:13;0.80;;;0.80;;
1390;SDS011;690;51.454;7.194;2022-12-29T00:52:40;2.33;;;1.07;;
1390;SDS011;690;51.454;7.194;2022-12-29T00:55:07;1.70;;;1.03;;
1390;SDS011;690;51.454;7.194;2022-12-29T00:57:34;1.50;;;1.07;;
1390;SDS011;690;51.454;7.194;2022-12-29T01:00:01;1.03;;;0.80;;
1390;SDS011;690;51.454;7.194;2022-12-29T01:02:28;0.90;;;0.80;;
1390;SDS011;690;51.454;7.194;2022-12-29T01:04:55;0.87;;;0.83;;
1390;SDS011;690;51.454;7.194;2022-12-29T01:07:22;0.57;;;0.57;;
1390;SDS011;690;51.454;7.194;2022-12-29T01:09:50;1.50;;;1.37;;
1390;SDS011;690;51.454;7.194;2022-12-29T01:12:37;1.37;;;0.90;;
1390;SDS011;690;51.454;7.194;2022-12-29T01:15:07;1.00;;;0.70;;
1390;SDS011;690;51.454;7.194;2022-12-29T01:17:35;0.83;;;0.83;;
1390;SDS011;690;51.454;7.194;2022-12-29T01:20:02;1.20;;;0.70;;
1390;SDS011;690;51.454;7.194;2022-12-29T01:22:29;1.33;;;0.90;;
1390;SDS011;690;51.454;7.194;2022-12-29T01:24:58;1.60;;;0.97;;
1390;SDS011;690;51.454;7.194;2022-12-29T01:27:24;0.90;;;0.70;;
1390;SDS011;690;51.454;7.194;2022-12-29T01:29:51;0.50;;;0.50;;
1390;SDS011;690;51.454;7.194;2022-12-29T01:32:18;0.93;;;0.60;;
1390;SDS011;690;51.454;7.194;2022-12-29T01:34:45;0.60;;;0.57;;
1390;SDS011;690;51.454;7.194;2022-12-29T01:37:12;1.00;;;0.80;;
1390;SDS011;690;51.454;7.194;2022-12-29T01:39:39;1.10;;;0.63;;
1390;SDS011;690;51.454;7.194;2022-12-29T01:42:09;0.97;;;0.60;;
1390;SDS011;690;51.454;7.194;2022-12-29T01:44:48;1.13;;;0.83;;
1390;SDS011;690;51.454;7.194;2022-12-29T01:47:25;1.20;;;0.70;;
1390;SDS011;690;51.454;7.194;2022-12-29T01:49:58;1.97;;;0.57;;
1390;SDS011;690;51.454;7.194;2022-12-29T01:52:31;0.63;;;0.50;;
1390;SDS011;690;51.454;7.194;2022-12-29T01:55:00;1.53;;;0.60;;
1390;SDS011;690;51.454;7.194;2022-12-29T01:57:32;1.23;;;0.60;;
1390;SDS011;690;51.454;7.194;2022-12-29T02:00:03;1.37;;;0.40;;
1390;SDS011;690;51.454;7.194;2022-12-29T02:02:33;0.60;;;0.60;;
1390;SDS011;690;51.454;7.194;2022-12-29T02:05:01;1.17;;;0.50;;
1390;SDS011;690;51.454;7.194;2022-12-29T02:07:35;2.40;;;0.60;;
1390;SDS011;690;51.454;7.194;2022-12-29T02:10:03;0.73;;;0.50;;
1390;SDS011;690;51.454;7.194;2022-12-29T02:12:33;0.73;;;0.63;;
1390;SDS011;690;51.454;7.194;2022-12-29T02:15:00;0.80;;;0.73;;
1390;SDS011;690;51.454;7.194;2022-12-29T02:17:35;0.50;;;0.50;;
1390;SDS011;690;51.454;7.194;2022-12-29T02:20:42;1.23;;;0.70;;
1390;SDS011;690;51.454;7.194;2022-12-29T02:26:48;0.40;;;0.40;;
1390;SDS011;690;51.454;7.194;2022-12-29T02:32:30;1.00;;;0.50;;
1390;SDS011;690;51.454;7.194;2022-12-29T02:35:05;0.87;;;0.50;;
1390;SDS011;690;51.454;7.194;2022-12-29T02:37:41;0.90;;;0.50;;
1390;SDS011;690;51.454;7.194;2022-12-29T02:40:17;0.80;;;0.60;;
1390;SDS011;690;51.454;7.194;2022-12-29T02:42:51;1.17;;;0.27;;
1390;SDS011;690;51.454;7.194;2022-12-29T02:45:26;0.60;;;0.43;;
1390;SDS011;690;51.454;7.194;2022-12-29T02:48:00;0.70;;;0.60;;
1390;SDS011;690;51.454;7.194;2022-12-29T02:50:33;0.70;;;0.63;;
1390;SDS011;690;51.454;7.194;2022-12-29T02:53:04;2.60;;;0.77;;
1390;SDS011;690;51.454;7.194;2022-12-29T02:55:34;0.90;;;0.50;;
1390;SDS011;690;51.454;7.194;2022-12-29T02:58:09;0.53;;;0.43;;
1390;SDS011;690;51.454;7.194;2022-12-29T03:00:45;0.90;;;0.70;;
1390;SDS011;690;51.454;7.194;2022-12-29T03:03:24;2.20;;;0.93;;
1390;SDS011;690;51.454;7.194;2022-12-29T03:06:01;1.50;;;0.70;;
1390;SDS011;690;51.454;7.194;2022-12-29T03:08:40;2.17;;;0.67;;
1390;SDS011;690;51.454;7.194;2022-12-29T03:11:14;2.20;;;0.70;;
1390;SDS011;690;51.454;7.194;2022-12-29T03:13:59;1.20;;;0.60;;
1390;SDS011;690;51.454;7.194;2022-12-29T03:16:52;1.60;;;0.77;;
1390;SDS011;690;51.454;7.194;2022-12-29T03:19:25;0.80;;;0.80;;
1390;SDS011;690;51.454;7.194;2022-12-29T03:21:56;1.40;;;1.00;;
1390;SDS011;690;51.454;7.194;2022-12-29T03:24:43;0.90;;;0.70;;
1390;SDS011;690;51.454;7.194;2022-12-29T03:27:14;1.23;;;0.67;;
1390;SDS011;690;51.454;7.194;2022-12-29T03:29:44;0.77;;;0.77;;
1390;SDS011;690;51.454;7.194;2022-12-29T03:32:17;1.03;;;0.93;;
1390;SDS011;690;51.454;7.194;2022-12-29T03:34:47;1.00;;;0.50;;
1390;SDS011;690;51.454;7.194;2022-12-29T03:37:17;3.10;;;0.80;;
1390;SDS011;690;51.454;7.194;2022-12-29T03:39:47;1.93;;;0.57;;
1390;SDS011;690;51.454;7.194;2022-12-29T03:42:15;1.60;;;0.87;;
1390;SDS011;690;51.454;7.194;2022-12-29T03:44:45;1.43;;;0.90;;
1390;SDS011;690;51.454;7.194;2022-12-29T03:47:13;1.97;;;1.13;;
1390;SDS011;690;51.454;7.194;2022-12-29T03:49:40;3.23;;;0.83;;
1390;SDS011;690;51.454;7.194;2022-12-29T03:52:09;2.23;;;0.97;;
1390;SDS011;690;51.454;7.194;2022-12-29T03:54:35;2.33;;;0.90;;
1390;SDS011;690;51.454;7.194;2022-12-29T03:57:02;2.20;;;0.80;;
1390;SDS011;690;51.454;7.194;2022-12-29T03:59:29;0.87;;;0.67;;
1390;SDS011;690;51.454;7.194;2022-12-29T04:01:56;1.80;;;0.67;;
1390;SDS011;690;51.454;7.194;2022-12-29T04:04:23;0.80;;;0.70;;
1390;SDS011;690;51.454;7.194;2022-12-29T04:06:50;2.77;;;0.80;;
1390;SDS011;690;51.454;7.194;2022-12-29T04:09:18;3.57;;;0.80;;
1390;SDS011;690;51.454;7.194;2022-12-29T04:11:45;0.73;;;0.70;;
1390;SDS011;690;51.454;7.194;2022-12-29T04:14:11;0.90;;;0.50;;
1390;SDS011;690;51.454;7.194;2022-12-29T04:16:38;0.70;;;0.70;;
1390;SDS011;690;51.454;7.194;2022-12-29T04:19:05;1.63;;;0.70;;
1390;SDS011;690;51.454;7.194;2022-12-29T04:21:33;2.57;;;0.80;;
1390;SDS011;690;51.454;7.194;2022-12-29T04:24:00;1.37;;;0.70;;
1390;SDS011;690;51.454;7.194;2022-12-29T04:26:28;1.10;;;0.70;;
1390;SDS011;690;51.454;7.194;2022-12-29T04:28:55;3.20;;;1.23;;
1390;SDS011;690;51.454;7.194;2022-12-29T04:31:21;0.80;;;0.60;;
1390;SDS011;690;51.454;7.194;2022-12-29T04:33:48;1.50;;;1.40;;
1390;SDS011;690;51.454;7.194;2022-12-29T04:36:15;0.50;;;0.40;;
1390;SDS011;690;51.454;7.194;2022-12-29T04:38:42;1.07;;;0.90;;
1390;SDS011;690;51.454;7.194;2022-12-29T04:41:09;2.70;;;0.90;;
1390;SDS011;690;51.454;7.194;2022-12-29T04:43:37;1.20;;;0.70;;
1390;SDS011;690;51.454;7.194;2022-12-29T04:46:04;0.80;;;0.60;;
1390;SDS011;690;51.454;7.194;2022-12-29T04:48:31;1.13;;;0.70;;
1390;SDS011;690;51.454;7.194;2022-12-29T04:50:58;4.83;;;0.70;;
1390;SDS011;690;51.454;7.194;2022-12-29T04:53:24;1.43;;;0.90;;
1390;SDS011;690;51.454;7.194;2022-12-29T04:55:52;3.33;;;1.60;;
1390;SDS011;690;51.454;7.194;2022-12-29T04:58:19;2.60;;;0.70;;
1390;SDS011;690;51.454;7.194;2022-12-29T05:00:47;2.30;;;0.80;;
1390;SDS011;690;51.454;7.194;2022-12-29T05:03:14;1.43;;;0.67;;
1390;SDS011;690;51.454;7.194;2022-12-29T05:05:41;0.90;;;0.77;;
1390;SDS011;690;51.454;7.194;2022-12-29T05:08:08;4.77;;;0.70;;
1390;SDS011;690;51.454;7.194;2022-12-29T05:10:35;0.63;;;0.53;;
1390;SDS011;690;51.454;7.194;2022-12-29T05:13:02;1.33;;;0.53;;
1390;SDS011;690;51.454;7.194;2022-12-29T05:15:29;2.30;;;1.07;;
1390;SDS011;690;51.454;7.194;2022-12-29T05:17:57;0.63;;;0.50;;
1390;SDS011;690;51.454;7.194;2022-12-29T05:20:24;1.47;;;0.60;;
1390;SDS011;690;51.454;7.194;2022-12-29T05:22:51;0.63;;;0.50;;
1390;SDS011;690;51.454;7.194;2022-12-29T05:25:17;3.03;;;0.73;;
1390;SDS011;690;51.454;7.194;2022-12-29T05:27:44;2.00;;;0.67;;
1390;SDS011;690;51.454;7.194;2022-12-29T05:30:11;0.60;;;0.50;;
1390;SDS011;690;51.454;7.194;2022-12-29T05:32:38;1.93;;;0.63;;
1390;SDS011;690;51.454;7.194;2022-12-29T05:35:07;3.20;;;1.47;;
1390;SDS011;690;51.454;7.194;2022-12-29T05:37:34;1.80;;;0.70;;
1390;SDS011;690;51.454;7.194;2022-12-29T05:40:01;1.13;;;0.57;;
1390;SDS011;690;51.454;7.194;2022-12-29T05:42:28;0.77;;;0.47;;
1390;SDS011;690;51.454;7.194;2022-12-29T05:44:55;1.03;;;0.50;;
1390;SDS011;690;51.454;7.194;2022-12-29T05:47:22;3.23;;;0.70;;
1390;SDS011;690;51.454;7.194;2022-12-29T05:49:49;1.00;;;0.80;;
1390;SDS011;690;51.454;7.194;2022-12-29T05:52:18;1.13;;;0.50;;
1390;SDS011;690;51.454;7.194;2022-12-29T05:54:44;1.10;;;0.60;;
1390;SDS011;690;51.454;7.194;2022-12-29T05:57:11;0.90;;;0.70;;
1390;SDS011;690;51.454;7.194;2022-12-29T05:59:38;2.37;;;0.93;;
1390;SDS011;690;51.454;7.194;2022-12-29T06:02:05;0.90;;;0.50;;
1390;SDS011;690;51.454;7.194;2022-12-29T06:04:31;0.87;;;0.50;;
1390;SDS011;690;51.454;7.194;2022-12-29T06:06:58;1.77;;;0.70;;
1390;SDS011;690;51.454;7.194;2022-12-29T06:09:26;1.20;;;0.83;;
1390;SDS011;690;51.454;7.194;2022-12-29T06:11:53;1.03;;;0.77;;
1390;SDS011;690;51.454;7.194;2022-12-29T06:14:20;1.13;;;0.63;;
1390;SDS011;690;51.454;7.194;2022-12-29T06:16:47;1.90;;;0.97;;
1390;SDS011;690;51.454;7.194;2022-12-29T06:19:14;1.87;;;0.70;;
1390;SDS011;690;51.454;7.194;2022-12-29T06:21:40;1.67;;;0.70;;
1390;SDS011;690;51.454;7.194;2022-12-29T06:24:08;3.80;;;1.20;;
1390;SDS011;690;51.454;7.194;2022-12-29T06:26:37;2.33;;;1.17;;
1390;SDS011;690;51.454;7.194;2022-12-29T06:29:05;0.93;;;0.83;;
1390;SDS011;690;51.454;7.194;2022-12-29T06:31:33;0.70;;;0.70;;
1390;SDS011;690;51.454;7.194;2022-12-29T06:33:59;2.40;;;0.80;;
1390;SDS011;690;51.454;7.194;2022-12-29T06:36:27;2.60;;;1.00;;
1390;SDS011;690;51.454;7.194;2022-12-29T06:38:54;3.47;;;0.90;;
1390;SDS011;690;51.454;7.194;2022-12-29T06:41:21;3.80;;;1.13;;
1390;SDS011;690;51.454;7.194;2022-12-29T06:43:49;1.20;;;0.60;;
1390;SDS011;690;51.454;7.194;2022-12-29T06:46:17;1.70;;;0.73;;
1390;SDS011;690;51.454;7.194;2022-12-29T06:48:43;0.93;;;0.83;;
1390;SDS011;690;51.454;7.194;2022-12-29T06:51:10;0.97;;;0.70;;
1390;SDS011;690;51.454;7.194;2022-12-29T06:53:37;1.97;;;0.80;;
1390;SDS011;690;51.454;7.194;2022-12-29T06:56:04;1.00;;;0.83;;
1390;SDS011;690;51.454;7.194;2022-12-29T06:58:31;3.80;;;1.10;;
1390;SDS011;690;51.454;7.194;2022-12-29T07:01:00;2.53;;;0.90;;
1390;SDS011;690;51.454;7.194;2022-12-29T07:03:26;2.70;;;0.80;;
1390;SDS011;690;51.454;7.194;2022-12-29T07:05:53;2.93;;;0.80;;
1390;SDS011;690;51.454;7.194;2022-12-29T07:08:20;1.27;;;0.90;;
1390;SDS011;690;51.454;7.194;2022-12-29T07:10:47;1.43;;;0.90;;
1390;SDS011;690;51.454;7.194;2022-12-29T07:13:14;2.87;;;1.00;;
1390;SDS011;690;51.454;7.194;2022-12-29T07:15:40;5.20;;;1.10;;
1390;SDS011;690;51.454;7.194;2022-12-29T07:18:09;2.07;;;0.90;;
1390;SDS011;690;51.454;7.194;2022-12-29T07:20:35;1.90;;;1.27;;
1390;SDS011;690;51.454;7.194;2022-12-29T07:23:02;2.83;;;0.97;;
1390;SDS011;690;51.454;7.194;2022-12-29T07:25:29;1.17;;;0.80;;
1390;SDS011;690;51.454;7.194;2022-12-29T07:27:56;4.00;;;1.60;;
1390;SDS011;690;51.454;7.194;2022-12-29T07:30:23;2.87;;;0.90;;
1390;SDS011;690;51.454;7.194;2022-12-29T07:32:49;1.20;;;0.70;;
1390;SDS011;690;51.454;7.194;2022-12-29T07:35:18;4.03;;;1.07;;
1390;SDS011;690;51.454;7.194;2022-12-29T07:37:44;1.40;;;0.83;;
1390;SDS011;690;51.454;7.194;2022-12-29T07:40:11;2.00;;;1.00;;
1390;SDS011;690;51.454;7.194;2022-12-29T07:42:38;4.03;;;0.80;;
1390;SDS011;690;51.454;7.194;2022-12-29T07:45:06;3.13;;;0.83;;
1390;SDS011;690;51.454;7.194;2022-12-29T07:47:34;3.93;;;1.00;;
1390;SDS011;690;51.454;7.194;2022-12-29T07:50:01;2.17;;;0.80;;
1390;SDS011;690;51.454;7.194;2022-12-29T07:52:29;1.47;;;0.90;;
1390;SDS011;690;51.454;7.194;2022-12-29T07:54:56;1.67;;;1.10;;
1390;SDS011;690;51.454;7.194;2022-12-29T07:57:22;1.20;;;0.63;;
1390;SDS011;690;51.454;7.194;2022-12-29T07:59:49;4.10;;;1.17;;
1390;SDS011;690;51.454;7.194;2022-12-29T08:02:16;2.93;;;1.20;;
1390;SDS011;690;51.454;7.194;2022-12-29T08:04:43;3.37;;;1.00;;
1390;SDS011;690;51.454;7.194;2022-12-29T08:07:10;3.33;;;0.80;;
1390;SDS011;690;51.454;7.194;2022-12-29T08:09:38;2.17;;;0.90;;
1390;SDS011;690;51.454;7.194;2022-12-29T08:12:05;2.63;;;0.97;;
1390;SDS011;690;51.454;7.194;2022-12-29T08:14:32;2.00;;;0.83;;
1390;SDS011;690;51.454;7.194;2022-12-29T08:16:59;2.73;;;0.90;;
1390;SDS011;690;51.454;7.194;2022-12-29T08:19:26;3.10;;;0.83;;
1390;SDS011;690;51.454;7.194;2022-12-29T08:21:53;2.93;;;1.10;;
1390;SDS011;690;51.454;7.194;2022-12-29T08:24:20;2.70;;;0.83;;
1390;SDS011;690;51.454;7.194;2022-12-29T08:26:48;2.60;;;0.97;;
1390;SDS011;690;51.454;7.194;2022-12-29T08:29:15;3.90;;;1.47;;
1390;SDS011;690;51.454;7.194;2022-12-29T08:31:42;6.23;;;1.10;;
1390;SDS011;690;51.454;7.194;2022-12-29T08:34:09;1.90;;;0.87;;
1390;SDS011;690;51.454;7.194;2022-12-29T08:36:36;5.20;;;1.43;;
1390;SDS011;690;51.454;7.194;2022-12-29T08:39:02;7.97;;;1.77;;
1390;SDS011;690;51.454;7.194;2022-12-29T08:41:29;2.50;;;1.17;;
1390;SDS011;690;51.454;7.194;2022-12-29T08:43:58;2.43;;;0.80;;
1390;SDS011;690;51.454;7.194;2022-12-29T08:46:25;3.00;;;1.20;;
1390;SDS011;690;51.454;7.194;2022-12-29T08:48:52;4.60;;;1.50;;
1390;SDS011;690;51.454;7.194;2022-12-29T08:51:19;2.70;;;1.20;;
1390;SDS011;690;51.454;7.194;2022-12-29T08:53:46;5.37;;;1.30;;
1390;SDS011;690;51.454;7.194;2022-12-29T08:56:13;6.47;;;1.50;;
1390;SDS011;690;51.454;7.194;2022-12-29T08:58:40;2.53;;;1.20;;
1390;SDS011;690;51.454;7.194;2022-12-29T09:01:08;3.30;;;0.93;;
1390;SDS011;690;51.454;7.194;2022-12-29T09:03:36;2.80;;;1.23;;
1390;SDS011;690;51.454;7.194;2022-12-29T09:06:03;2.53;;;1.40;;
1390;SDS011;690;51.454;7.194;2022-12-29T09:08:30;4.03;;;1.47;;
1390;SDS011;690;51.454;7.194;2022-12-29T09:11:05;4.33;;;1.13;;
1390;SDS011;690;51.454;7.194;2022-12-29T09:13:33;5.50;;;1.40;;
1390;SDS011;690;51.454;7.194;2022-12-29T09:16:00;3.33;;;0.97;;
1390;SDS011;690;51.454;7.194;2022-12-29T09:18:28;6.00;;;1.67;;
1390;SDS011;690;51.454;7.194;2022-12-29T09:20:56;4.17;;;1.73;;
1390;SDS011;690;51.454;7.194;2022-12-29T09:23:24;3.47;;;1.20;;
1390;SDS011;690;51.454;7.194;2022-12-29T09:25:51;3.17;;;1.27;;
1390;SDS011;690;51.454;7.194;2022-12-29T09:28:18;5.70;;;1.40;;
1390;SDS011;690;51.454;7.194;2022-12-29T09:30:45;4.27;;;1.40;;
1390;SDS011;690;51.454;7.194;2022-12-29T09:33:12;3.10;;;1.20;;
1390;SDS011;690;51.454;7.194;2022-12-29T09:35:42;4.67;;;1.60;;
1390;SDS011;690;51.454;7.194;2022-12-29T09:38:09;3.33;;;1.33;;
1390;SDS011;690;51.454;7.194;2022-12-29T09:40:36;5.17;;;1.30;;
1390;SDS011;690;51.454;7.194;2022-12-29T09:43:09;4.80;;;1.63;;
1390;SDS011;690;51.454;7.194;2022-12-29T09:45:49;5.23;;;1.60;;
1390;SDS011;690;51.454;7.194;2022-12-29T09:48:22;5.70;;;1.73;;
1390;SDS011;690;51.454;7.194;2022-12-29T09:50:55;8.10;;;1.40;;
1390;SDS011;690;51.454;7.194;2022-12-29T09:53:25;7.93;;;2.10;;
1390;SDS011;690;51.454;7.194;2022-12-29T09:55:57;2.03;;;1.10;;
1390;SDS011;690;51.454;7.194;2022-12-29T09:58:28;6.60;;;2.30;;
1390;SDS011;690;51.454;7.194;2022-12-29T10:01:02;3.63;;;1.30;;
1390;SDS011;690;51.454;7.194;2022-12-29T10:03:32;6.10;;;1.10;;
1390;SDS011;690;51.454;7.194;2022-12-29T10:06:09;4.53;;;1.27;;
1390;SDS011;690;51.454;7.194;2022-12-29T10:08:40;8.20;;;1.63;;
1390;SDS011;690;51.454;7.194;2022-12-29T10:11:16;5.20;;;1.20;;
1390;SDS011;690;51.454;7.194;2022-12-29T10:13:59;4.73;;;1.40;;
1390;SDS011;690;51.454;7.194;2022-12-29T10:16:38;2.73;;;1.20;;
1390;SDS011;690;51.454;7.194;2022-12-29T10:19:13;4.43;;;1.50;;
1390;SDS011;690;51.454;7.194;2022-12-29T10:21:56;2.93;;;1.40;;
1390;SDS011;690;51.454;7.194;2022-12-29T10:24:35;3.93;;;1.10;;
1390;SDS011;690;51.454;7.194;2022-12-29T10:27:05;6.83;;;1.10;;
1390;SDS011;690;51.454;7.194;2022-12-29T10:29:37;6.03;;;1.20;;
1390;SDS011;690;51.454;7.194;2022-12-29T10:32:13;3.10;;;1.03;;
1390;SDS011;690;51.454;7.194;2022-12-29T10:34:49;3.07;;;1.23;;
1390;SDS011;690;51.454;7.194;2022-12-29T10:37:24;5.17;;;1.40;;
1390;SDS011;690;51.454;7.194;2022-12-29T10:39:56;3.23;;;1.50;;
1390;SDS011;690;51.454;7.194;2022-12-29T10:42:26;5.10;;;1.80;;
1390;SDS011;690;51.454;7.194;2022-12-29T10:44:54;4.20;;;1.40;;
1390;SDS011;690;51.454;7.194;2022-12-29T10:47:23;4.77;;;1.77;;
1390;SDS011;690;51.454;7.194;2022-12-29T10:49:54;3.87;;;1.10;;
1390;SDS011;690;51.454;7.194;2022-12-29T10:52:24;4.20;;;1.13;;
1390;SDS011;690;51.454;7.194;2022-12-29T10:54:54;6.97;;;1.67;;
1390;SDS011;690;51.454;7.194;2022-12-29T10:57:26;5.50;;;1.30;;
1390;SDS011;690;51.454;7.194;2022-12-29T10:59:55;3.37;;;1.10;;
1390;SDS011;690;51.454;7.194;2022-12-29T11:02:40;1.73;;;0.90;;
1390;SDS011;690;51.454;7.194;2022-12-29T11:05:30;3.73;;;1.33;;
1390;SDS011;690;51.454;7.194;2022-12-29T11:08:04;4.07;;;1.30;;
1390;SDS011;690;51.454;7.194;2022-12-29T11:10:37;6.30;;;1.40;;
1390;SDS011;690;51.454;7.194;2022-12-29T11:13:11;5.37;;;1.87;;
1390;SDS011;690;51.454;7.194;2022-12-29T11:15:39;7.77;;;1.87;;
1390;SDS011;690;51.454;7.194;2022-12-29T11:18:17;7.93;;;1.60;;
1390;SDS011;690;51.454;7.194;2022-12-29T11:20:45;5.10;;;1.37;;
1390;SDS011;690;51.454;7.194;2022-12-29T11:23:22;5.57;;;1.97;;
1390;SDS011;690;51.454;7.194;2022-12-29T11:26:06;9.07;;;2.13;;
1390;SDS011;690;51.454;7.194;2022-12-29T11:28:38;6.80;;;1.47;;
1390;SDS011;690;51.454;7.194;2022-12-29T11:31:06;4.67;;;1.30;;
1390;SDS011;690;51.454;7.194;2022-12-29T11:33:35;6.70;;;1.60;;
1390;SDS011;690;51.454;7.194;2022-12-29T11:36:04;5.33;;;1.50;;
1390;SDS011;690;51.454;7.194;2022-12-29T11:38:36;4.70;;;1.63;;
1390;SDS011;690;51.454;7.194;2022-12-29T11:41:05;4.23;;;1.63;;
1390;SDS011;690;51.454;7.194;2022-12-29T11:43:37;5.80;;;2.33;;
1390;SDS011;690;51.454;7.194;2022-12-29T11:46:06;6.93;;;1.53;;
1390;SDS011;690;51.454;7.194;2022-12-29T11:48:41;7.50;;;1.37;;
1390;SDS011;690;51.454;7.194;2022-12-29T11:51:08;4.53;;;1.23;;
1390;SDS011;690;51.454;7.194;2022-12-29T11:53:41;8.73;;;1.80;;
1390;SDS011;690;51.454;7.194;2022-12-29T11:56:12;2.80;;;1.27;;
1390;SDS011;690;51.454;7.194;2022-12-29T11:58:42;7.67;;;2.13;;
1390;SDS011;690;51.454;7.194;2022-12-29T12:01:11;6.80;;;1.90;;
1390;SDS011;690;51.454;7.194;2022-12-29T12:03:44;5.53;;;1.70;;
1390;SDS011;690;51.454;7.194;2022-12-29T12:06:19;5.30;;;1.57;;
1390;SDS011;690;51.454;7.194;2022-12-29T12:08:51;5.30;;;1.70;;
1390;SDS011;690;51.454;7.194;2022-12-29T12:11:22;8.27;;;1.90;;
1390;SDS011;690;51.454;7.194;2022-12-29T12:13:55;3.67;;;1.50;;
1390;SDS011;690;51.454;7.194;2022-12-29T12:16:27;3.57;;;1.40;;
1390;SDS011;690;51.454;7.194;2022-12-29T12:19:01;3.47;;;1.40;;
1390;SDS011;690;51.454;7.194;2022-12-29T12:21:34;4.00;;;1.33;;
1390;SDS011;690;51.454;7.194;2022-12-29T12:24:14;8.50;;;1.90;;
1390;SDS011;690;51.454;7.194;2022-12-29T12:26:53;3.60;;;1.23;;
1390;SDS011;690;51.454;7.194;2022-12-29T12:29:25;4.70;;;1.37;;
1390;SDS011;690;51.454;7.194;2022-12-29T12:32:01;3.80;;;1.40;;
1390;SDS011;690;51.454;7.194;2022-12-29T12:34:36;5.87;;;1.60;;
1390;SDS011;690;51.454;7.194;2022-12-29T12:37:13;7.20;;;2.53;;
1390;SDS011;690;51.454;7.194;2022-12-29T12:40:00;9.33;;;1.90;;
1390;SDS011;690;51.454;7.194;2022-12-29T12:42:42;6.63;;;1.73;;
1390;SDS011;690;51.454;7.194;2022-12-29T12:45:26;6.37;;;1.63;;
1390;SDS011;690;51.454;7.194;2022-12-29T12:48:07;3.77;;;1.40;;
1390;SDS011;690;51.454;7.194;2022-12-29T12:50:49;7.00;;;1.40;;
1390;SDS011;690;51.454;7.194;2022-12-29T12:53:30;2.87;;;1.40;;
1390;SDS011;690;51.454;7.194;2022-12-29T12:56:12;4.67;;;1.37;;
1390;SDS011;690;51.454;7.194;2022-12-29T12:58:53;4.23;;;1.30;;
1390;SDS011;690;51.454;7.194;2022-12-29T13:01:29;7.03;;;2.30;;
1390;SDS011;690;51.454;7.194;2022-12-29T13:04:27;4.77;;;1.23;;
1390;SDS011;690;51.454;7.194;2022-12-29T13:07:11;6.53;;;1.50;;
1390;SDS011;690;51.454;7.194;2022-12-29T13:09:57;3.60;;;1.23;;
1390;SDS011;690;51.454;7.194;2022-12-29T13:12:35;4.03;;;1.10;;
1390;SDS011;690;51.454;7.194;2022-12-29T13:15:13;6.27;;;1.80;;
1390;SDS011;690;51.454;7.194;2022-12-29T13:17:49;4.53;;;1.43;;
1390;SDS011;690;51.454;7.194;2022-12-29T13:20:25;7.90;;;1.83;;
1390;SDS011;690;51.454;7.194;2022-12-29T13:23:00;7.90;;;1.77;;
1390;SDS011;690;51.454;7.194;2022-12-29T13:25:33;5.00;;;0.97;;
1390;SDS011;690;51.454;7.194;2022-12-29T13:28:09;8.07;;;2.37;;
1390;SDS011;690;51.454;7.194;2022-12-29T13:30:44;5.27;;;1.30;;
1390;SDS011;690;51.454;7.194;2022-12-29T13:33:21;6.33;;;1.40;;
1390;SDS011;690;51.454;7.194;2022-12-29T13:35:56;10.53;;;2.80;;
1390;SDS011;690;51.454;7.194;2022-12-29T13:38:29;4.83;;;1.87;;
1390;SDS011;690;51.454;7.194;2022-12-29T13:41:00;5.37;;;1.57;;
1390;SDS011;690;51.454;7.194;2022-12-29T13:43:32;7.53;;;1.87;;
1390;SDS011;690;51.454;7.194;2022-12-29T13:46:03;8.23;;;1.40;;
1390;SDS011;690;51.454;7.194;2022-12-29T13:48:35;4.90;;;1.90;;
1390;SDS011;690;51.454;7.194;2022-12-29T13:51:06;9.33;;;1.60;;
1390;SDS011;690;51.454;7.194;2022-12-29T13:53:37;7.43;;;1.67;;
1390;SDS011;690;51.454;7.194;2022-12-29T13:56:17;3.47;;;2.63;;
1390;SDS011;690;51.454;7.194;2022-12-29T13:58:52;4.87;;;1.30;;
1390;SDS011;690;51.454;7.194;2022-12-29T14:01:24;5.67;;;1.83;;
1390;SDS011;690;51.454;7.194;2022-12-29T14:03:57;3.33;;;1.40;;
1390;SDS011;690;51.454;7.194;2022-12-29T14:06:25;4.37;;;1.30;;
1390;SDS011;690;51.454;7.194;2022-12-29T14:08:54;5.30;;;1.90;;
1390;SDS011;690;51.454;7.194;2022-12-29T14:11:23;5.80;;;1.93;;
1390;SDS011;690;51.454;7.194;2022-12-29T14:13:58;6.33;;;1.47;;
1390;SDS011;690;51.454;7.194;2022-12-29T14:16:36;7.73;;;2.10;;
1390;SDS011;690;51.454;7.194;2022-12-29T14:19:05;3.93;;;1.20;;
1390;SDS011;690;51.454;7.194;2022-12-29T14:21:37;5.03;;;1.73;;
1390;SDS011;690;51.454;7.194;2022-12-29T14:30:05;7.60;;;1.43;;
1390;SDS011;690;51.454;7.194;2022-12-29T14:33:11;11.93;;;3.73;;
1390;SDS011;690;51.454;7.194;2022-12-29T14:35:41;10.27;;;1.93;;
1390;SDS011;690;51.454;7.194;2022-12-29T14:38:16;9.00;;;2.20;;
1390;SDS011;690;51.454;7.194;2022-12-29T14:40:45;5.80;;;1.50;;
1390;SDS011;690;51.454;7.194;2022-12-29T14:43:16;5.00;;;1.60;;
1390;SDS011;690;51.454;7.194;2022-12-29T14:45:56;5.00;;;1.63;;
1390;SDS011;690;51.454;7.194;2022-12-29T14:51:18;5.00;;;2.23;;
1390;SDS011;690;51.454;7.194;2022-12-29T14:53:52;4.17;;;1.63;;
1390;SDS011;690;51.454;7.194;2022-12-29T14:56:19;2.33;;;0.90;;
1390;SDS011;690;51.454;7.194;2022-12-29T14:58:51;4.20;;;1.30;;
1390;SDS011;690;51.454;7.194;2022-12-29T15:01:24;7.90;;;2.30;;
1390;SDS011;690;51.454;7.194;2022-12-29T15:03:54;8.47;;;2.13;;
1390;SDS011;690;51.454;7.194;2022-12-29T15:06:23;4.73;;;1.37;;
1390;SDS011;690;51.454;7.194;2022-12-29T15:08:56;6.60;;;1.77;;
1390;SDS011;690;51.454;7.194;2022-12-29T15:11:31;5.50;;;1.40;;
1390;SDS011;690;51.454;7.194;2022-12-29T15:14:33;4.97;;;1.63;;
1390;SDS011;690;51.454;7.194;2022-12-29T15:17:10;6.20;;;1.50;;
1390;SDS011;690;51.454;7.194;2022-12-29T15:19:50;3.53;;;1.50;;
1390;SDS011;690;51.454;7.194;2022-12-29T15:22:17;4.27;;;1.30;;
1390;SDS011;690;51.454;7.194;2022-12-29T15:24:44;9.50;;;1.33;;
1390;SDS011;690;51.454;7.194;2022-12-29T15:27:13;5.10;;;1.53;;
1390;SDS011;690;51.454;7.194;2022-12-29T15:29:42;2.13;;;1.00;;
1390;SDS011;690;51.454;7.194;2022-12-29T15:32:17;5.00;;;2.07;;
1390;SDS011;690;51.454;7.194;2022-12-29T15:34:47;5.43;;;2.03;;
1390;SDS011;690;51.454;7.194;2022-12-29T15:37:19;4.37;;;1.30;;
1390;SDS011;690;51.454;7.194;2022-12-29T15:39:49;9.80;;;2.70;;
1390;SDS011;690;51.454;7.194;2022-12-29T15:42:21;10.70;;;1.50;;
1390;SDS011;690;51.454;7.194;2022-12-29T15:44:58;7.27;;;1.80;;
1390;SDS011;690;51.454;7.194;2022-12-29T15:47:30;5.27;;;1.40;;
1390;SDS011;690;51.454;7.194;2022-12-29T15:49:59;6.43;;;1.80;;
1390;SDS011;690;51.454;7.194;2022-12-29T15:52:30;6.33;;;1.40;;
1390;SDS011;690;51.454;7.194;2022-12-29T15:54:58;6.23;;;1.73;;
1390;SDS011;690;51.454;7.194;2022-12-29T15:57:28;5.80;;;1.50;;
1390;SDS011;690;51.454;7.194;2022-12-29T15:59:57;4.00;;;1.20;;
1390;SDS011;690;51.454;7.194;2022-12-29T16:02:24;4.70;;;1.80;;
1390;SDS011;690;51.454;7.194;2022-12-29T16:04:53;5.90;;;1.30;;
1390;SDS011;690;51.454;7.194;2022-12-29T16:07:24;5.10;;;1.67;;
1390;SDS011;690;51.454;7.194;2022-12-29T16:09:56;5.50;;;2.00;;